Aviation Forecast PDF Print E-mail

 
met_logo

NATIONAL METEOROLOGICAL SERVICE OF BELIZE

Area Forecast for the Country of Belize


For the period from:

1200 04 DECEMBER 2016

to

2400 04 DECEMBER 2016

All Heights in the forecast are above sea level. PS= Positive, MS= Minus. All times are UTC.


A.

SPECIAL FEATURES of the METEOROLOGICAL SITUATION

GENERALLY FAIR CONDITIONS PREVAIL...

B.

HEIGHT (Ft)

WIND (True Degrees and Knots)

TEMPERATURE (°C)

Surface

11010

  

PS31-33

2,000

12015

PS21

5,000

12015

PS18

10,000

14010

PS09

C.

CLOUDS (Amount, Type, Ceiling and Top(optional))

 

 SCT CU BASES 2200FT TOPS 8000FT 

 SCT SC BASES 4000FT TOPS 6000FT

 

 


D.

SURFACE VISIBILITY:  25KM. 3-5KM IN SHRA . 500M IN HILL FOG . 


E.

WEATHER:  PARTLY CLOUDY . ISOLATED SHOWERS . HILL FOG .


Remarks, Warnings, Turbulence

Barometric Changes

LOW CLOUDS COVERING HILLS

DIURNAL

G.

OUTLOOK:

TO 1200 05 DEC -

SIMILAR.

H. 

TAF  MZBZ

041040Z 0412/0512 30003KT 9999 SCT022 BECMG 0414/0415 12008KT=

Meteorological Office:

BELIZE

Issued at:

1115 04 DECEMBER 2016

Forecaster:

Rudon/Young